Time;durP1;ratioP1;P1;durP2;ratioP2;P2;SDS_P1;SDS_P2;PMS_P1;PMS_P2;Temp;Humidity;BMP_temperature;BMP_pressure;BME280_temperature;BME280_humidity;BME280_pressure;Samples;Min_cycle;Max_cycle;Signal;HPM_P1;HPM_P2
2023/11/26 00:00:43;;;;;;;;;;;;;;;;;;136545;1283;22944;-85
2023/11/26 00:04:08;;;;;;;;;;;;;;;;;;136539;1283;22585;-85
2023/11/26 00:07:10;;;;;;;;;;;;;;;;;;136577;1275;22487;-85
2023/11/26 00:10:14;;;;;;;;;;;;;;;;;;136594;1283;22558;-85
2023/11/26 00:13:16;;;;;;;;;;;;;;;;;;136644;1276;22331;-85
2023/11/26 00:16:19;;;;;;;;;;;;;;;;;;136540;1284;22551;-85
2023/11/26 00:19:21;;;;;;;;;;;;;;;;;;136599;1283;22688;-86
2023/11/26 00:22:28;;;;;;;;;;;;;;;;;;136667;1284;22415;-84
2023/11/26 00:25:32;;;;;;;;;;;;;;;;;;136641;1283;22580;-84
2023/11/26 00:28:35;;;;;;;;;;;;;;;;;;136997;1279;22930;-84
2023/11/26 00:31:38;;;;;;;;;;;;;;;;;;137202;1279;22523;-84
2023/11/26 00:34:40;;;;;;;;;;;;;;;;;;137160;1279;22367;-85
2023/11/26 00:37:43;;;;;;;;;;;;;;;;;;136933;1279;22547;-83
2023/11/26 00:40:45;;;;;;;;;;;;;;;;;;137098;1279;25954;-83
2023/11/26 00:43:49;;;;;;;;;;;;;;;;;;137108;1279;22523;-83
2023/11/26 00:46:51;;;;;;;;;;;;;;;;;;136981;1279;22523;-82
2023/11/26 00:49:55;;;;;;;;;;;;;;;;;;137033;1279;22526;-83
2023/11/26 00:52:58;;;;;;;;;;;;;;;;;;137019;1279;22606;-85
2023/11/26 00:56:00;;;;;;;;;;;;;;;;;;136958;1279;22537;-85
2023/11/26 00:59:03;;;;;;;;;;;;;;;;;;136963;1279;22498;-84
2023/11/26 01:02:07;;;;;;;;;;;;;;;;;;137054;1279;22547;-84
2023/11/26 01:05:10;;;;;;;;;;;;;;;;;;136990;1279;22539;-85
2023/11/26 01:08:13;;;;;;;;;;;;;;;;;;136959;1279;22505;-84
2023/11/26 01:11:15;;;;;;;;;;;;;;;;;;136899;1279;22544;-83
2023/11/26 01:14:18;;;;;;;;;;;;;;;;;;137035;1279;22505;-84
2023/11/26 01:17:21;;;;;;;;;;;;;;;;;;136991;1279;22918;-83
2023/11/26 01:20:23;;;;;;;;;;;;;;;;;;137013;1279;22532;-84
2023/11/26 01:23:26;;;;;;;;;;;;;;;;;;137058;1272;22409;-84
2023/11/26 01:26:28;;;;;;;;;;;;;;;;;;136967;1279;22971;-83
2023/11/26 01:29:31;;;;;;;;;;;;;;;;;;137068;1279;22282;-84
2023/11/26 01:32:35;;;;;;;;;;;;;;;;;;136914;1279;22987;-83
2023/11/26 01:35:37;;;;;;;;;;;;;;;;;;136955;1279;23384;-83
2023/11/26 01:38:40;;;;;;;;;;;;;;;;;;137008;1275;22545;-83
2023/11/26 01:41:42;;;;;;;;;;;;;;;;;;136996;1279;22534;-83
2023/11/26 01:44:45;;;;;;;;;;;;;;;;;;136990;1279;22520;-83
2023/11/26 01:47:47;;;;;;;;;;;;;;;;;;137037;1279;22533;-84
2023/11/26 01:50:50;;;;;;;;;;;;;;;;;;136998;1279;22511;-83
2023/11/26 01:53:53;;;;;;;;;;;;;;;;;;137000;1279;22579;-83
2023/11/26 01:56:55;;;;;;;;;;;;;;;;;;136908;1279;22556;-83
2023/11/26 01:59:58;;;;;;;;;;;;;;;;;;137044;1279;22498;-83
2023/11/26 02:03:00;;;;;;;;;;;;;;;;;;136980;1279;22501;-83
2023/11/26 02:06:03;;;;;;;;;;;;;;;;;;136848;1279;22912;-83
2023/11/26 02:09:06;;;;;;;;;;;;;;;;;;136974;1279;22575;-83
2023/11/26 02:12:09;;;;;;;;;;;;;;;;;;136996;1279;25019;-84
2023/11/26 02:15:13;;;;;;;;;;;;;;;;;;137037;1279;22549;-83
2023/11/26 02:18:15;;;;;;;;;;;;;;;;;;136964;1279;22498;-83
2023/11/26 02:21:18;;;;;;;;;;;;;;;;;;137060;1272;22527;-82
2023/11/26 02:24:20;;;;;;;;;;;;;;;;;;136995;1279;22873;-82
2023/11/26 02:27:23;;;;;;;;;;;;;;;;;;136946;1279;22602;-83
2023/11/26 02:30:25;;;;;;;;;;;;;;;;;;137050;1279;22573;-83
2023/11/26 02:33:28;;;;;;;;;;;;;;;;;;137002;1272;22713;-83
2023/11/26 02:36:30;;;;;;;;;;;;;;;;;;137135;1270;22572;-82
2023/11/26 02:39:33;;;;;;;;;;;;;;;;;;137068;1278;22503;-84
2023/11/26 02:42:35;;;;;;;;;;;;;;;;;;137096;1278;22516;-83
2023/11/26 02:45:38;;;;;;;;;;;;;;;;;;137142;1278;22582;-83
2023/11/26 02:48:40;;;;;;;;;;;;;;;;;;137015;1277;22529;-82
2023/11/26 02:51:43;;;;;;;;;;;;;;;;;;136871;1278;24201;-81
2023/11/26 02:54:48;;;;;;;;;;;;;;;;;;137199;1278;22495;-82
2023/11/26 02:57:51;;;;;;;;;;;;;;;;;;137070;1278;22497;-82
2023/11/26 03:00:53;;;;;;;;;;;;;;;;;;137010;1278;22603;-81
2023/11/26 03:03:56;;;;;;;;;;;;;;;;;;137183;1278;22620;-80
2023/11/26 03:06:58;;;;;;;;;;;;;;;;;;137180;1278;22534;-81
2023/11/26 03:13:22;;;;;;;;;;;;;;;;;;137156;1278;22574;-81
2023/11/26 03:16:24;;;;;;;;;;;;;;;;;;137006;1278;22504;-80
2023/11/26 03:19:27;;;;;;;;;;;;;;;;;;137029;1278;22965;-80
2023/11/26 03:22:29;;;;;;;;;;;;;;;;;;136974;1278;22570;-80
2023/11/26 03:25:32;;;;;;;;;;;;;;;;;;137157;1278;22297;-81
2023/11/26 03:28:35;;;;;;;;;;;;;;;;;;136927;1278;22465;-80
2023/11/26 03:31:38;;;;;;;;;;;;;;;;;;137034;1278;22521;-81
2023/11/26 03:34:40;;;;;;;;;;;;;;;;;;136967;1278;22558;-80
2023/11/26 03:37:42;;;;;;;;;;;;;;;;;;137152;1278;22375;-81
2023/11/26 03:40:45;;;;;;;;;;;;;;;;;;137154;1278;22768;-80
2023/11/26 03:43:47;;;;;;;;;;;;;;;;;;137066;1278;22521;-80
2023/11/26 03:46:51;;;;;;;;;;;;;;;;;;137108;1278;23054;-80
2023/11/26 03:49:53;;;;;;;;;;;;;;;;;;137166;1278;22545;-80
2023/11/26 03:52:56;;;;;;;;;;;;;;;;;;137153;1278;23023;-80
2023/11/26 03:55:58;;;;;;;;;;;;;;;;;;137107;1278;22829;-80
2023/11/26 03:59:01;;;;;;;;;;;;;;;;;;137040;1278;22510;-80
2023/11/26 04:02:03;;;;;;;;;;;;;;;;;;136992;1278;22512;-81
2023/11/26 04:05:07;;;;;;;;;;;;;;;;;;137001;1278;22515;-80
2023/11/26 04:08:10;;;;;;;;;;;;;;;;;;137121;1278;22348;-80
2023/11/26 04:11:13;;;;;;;;;;;;;;;;;;137319;1275;22510;-82
2023/11/26 04:14:16;;;;;;;;;;;;;;;;;;137373;1275;22502;-80
2023/11/26 04:17:19;;;;;;;;;;;;;;;;;;137403;1275;22518;-81
2023/11/26 04:20:22;;;;;;;;;;;;;;;;;;137335;1275;22508;-80
2023/11/26 04:23:24;;;;;;;;;;;;;;;;;;137352;1275;22511;-81
2023/11/26 04:26:27;;;;;;;;;;;;;;;;;;137365;1275;23019;-81
2023/11/26 04:29:29;;;;;;;;;;;;;;;;;;137397;1275;22307;-80
2023/11/26 04:32:32;;;;;;;;;;;;;;;;;;137415;1275;22506;-80
2023/11/26 04:35:34;;;;;;;;;;;;;;;;;;137306;1275;22597;-79
2023/11/26 04:38:37;;;;;;;;;;;;;;;;;;137292;1275;22586;-80
2023/11/26 04:41:40;;;;;;;;;;;;;;;;;;137437;1275;22351;-80
2023/11/26 04:44:43;;;;;;;;;;;;;;;;;;137204;1275;22938;-80
2023/11/26 04:47:46;;;;;;;;;;;;;;;;;;137226;1275;22977;-80
2023/11/26 04:50:49;;;;;;;;;;;;;;;;;;137370;1275;22550;-80
2023/11/26 04:53:53;;;;;;;;;;;;;;;;;;137377;1272;22494;-80
2023/11/26 04:56:58;;;;;;;;;;;;;;;;;;137411;1275;22519;-80
2023/11/26 05:00:00;;;;;;;;;;;;;;;;;;137407;1275;22345;-79
2023/11/26 05:03:04;;;;;;;;;;;;;;;;;;137387;1275;22554;-80
2023/11/26 05:06:07;;;;;;;;;;;;;;;;;;137413;1275;22819;-80
2023/11/26 05:09:11;;;;;;;;;;;;;;;;;;137360;1275;22530;-79
2023/11/26 05:12:15;;;;;;;;;;;;;;;;;;137420;1275;22503;-80
2023/11/26 05:15:17;;;;;;;;;;;;;;;;;;137131;1275;22581;-81
2023/11/26 05:18:20;;;;;;;;;;;;;;;;;;137329;1275;22617;-81
2023/11/26 05:21:22;;;;;;;;;;;;;;;;;;137268;1275;22546;-81
2023/11/26 05:24:25;;;;;;;;;;;;;;;;;;137087;1275;22507;-80
2023/11/26 05:27:27;;;;;;;;;;;;;;;;;;137368;1275;22599;-80
2023/11/26 05:30:30;;;;;;;;;;;;;;;;;;137326;1275;22578;-81
2023/11/26 05:33:32;;;;;;;;;;;;;;;;;;137370;1275;22559;-81
2023/11/26 05:36:35;;;;;;;;;;;;;;;;;;137383;1275;22541;-80
2023/11/26 05:39:37;;;;;;;;;;;;;;;;;;137445;1275;22982;-81
2023/11/26 05:42:39;;;;;;;;;;;;;;;;;;137308;1275;22549;-81
2023/11/26 05:45:43;;;;;;;;;;;;;;;;;;137352;1275;22512;-81
2023/11/26 05:48:45;;;;;;;;;;;;;;;;;;137423;1275;22521;-80
2023/11/26 05:51:48;;;;;;;;;;;;;;;;;;137383;1275;22582;-81
2023/11/26 05:54:51;;;;;;;;;;;;;;;;;;137410;1275;22535;-81
2023/11/26 05:57:53;;;;;;;;;;;;;;;;;;137412;1275;22541;-81
2023/11/26 06:00:57;;;;;;;;;;;;;;;;;;137418;1272;22497;-81
2023/11/26 06:04:00;;;;;;;;;;;;;;;;;;137351;1275;22502;-81
2023/11/26 06:07:02;;;;;;;;;;;;;;;;;;137272;1275;22498;-81
2023/11/26 06:10:05;;;;;;;;;;;;;;;;;;137289;1275;22500;-80
2023/11/26 06:13:08;;;;;;;;;;;;;;;;;;137368;1275;22522;-82
2023/11/26 06:16:10;;;;;;;;;;;;;;;;;;137249;1275;22503;-82
2023/11/26 06:19:13;;;;;;;;;;;;;;;;;;137332;1275;22496;-81
2023/11/26 06:22:16;;;;;;;;;;;;;;;;;;137404;1275;23035;-82
2023/11/26 06:25:18;;;;;;;;;;;;;;;;;;137314;1275;22577;-83
2023/11/26 06:28:21;;;;;;;;;;;;;;;;;;137387;1275;22528;-83
2023/11/26 06:31:23;;;;;;;;;;;;;;;;;;137305;1275;22531;-82
2023/11/26 06:34:27;;;;;;;;;;;;;;;;;;137383;1275;22501;-82
2023/11/26 06:37:29;;;;;;;;;;;;;;;;;;137413;1275;22326;-82
2023/11/26 06:40:31;;;;;;;;;;;;;;;;;;137400;1275;22409;-81
2023/11/26 06:43:34;;;;;;;;;;;;;;;;;;137414;1275;22375;-82
2023/11/26 06:46:36;;;;;;;;;;;;;;;;;;137406;1275;22789;-81
2023/11/26 06:49:41;;;;;;;;;;;;;;;;;;137339;1275;22517;-83
2023/11/26 06:52:44;;;;;;;;;;;;;;;;;;137435;1275;22598;-81
2023/11/26 06:55:46;;;;;;;;;;;;;;;;;;137403;1275;22523;-82
2023/11/26 06:58:49;;;;;;;;;;;;;;;;;;137401;1275;22484;-82
2023/11/26 07:01:51;;;;;;;;;;;;;;;;;;137341;1275;22519;-83
2023/11/26 07:04:54;;;;;;;;;;;;;;;;;;137317;1275;23063;-82
2023/11/26 07:07:56;;;;;;;;;;;;;;;;;;137308;1272;22515;-82
2023/11/26 07:10:59;;;;;;;;;;;;;;;;;;137334;1275;22509;-83
2023/11/26 07:14:02;;;;;;;;;;;;;;;;;;137268;1275;22505;-82
2023/11/26 07:17:05;;;;;;;;;;;;;;;;;;137524;1275;22393;-82
2023/11/26 07:20:09;;;;;;;;;;;;;;;;;;136850;1275;22560;-82
2023/11/26 07:23:12;;;;;;;;;;;;;;;;;;137494;1275;22563;-83
2023/11/26 07:26:18;;;;;;;;;;;;;;;;;;137165;1275;22685;-82
2023/11/26 07:29:20;;;;;;;;;;;;;;;;;;137235;1275;22549;-82
2023/11/26 07:32:26;;;;;;;;;;;;;;;;;;137503;1275;22502;-81
2023/11/26 07:35:30;;;;;;;;;;;;;;;;;;137534;1275;22353;-82
2023/11/26 07:38:32;;;;;;;;;;;;;;;;;;137513;1275;22282;-83
2023/11/26 07:41:37;;;;;;;;;;;;;;;;;;137449;1275;22534;-83
2023/11/26 07:44:40;;;;;;;;;;;;;;;;;;137410;1275;22542;-82
2023/11/26 07:47:45;;;;;;;;;;;;;;;;;;137475;1275;22527;-82
2023/11/26 07:50:48;;;;;;;;;;;;;;;;;;137265;1275;22507;-83
2023/11/26 07:53:50;;;;;;;;;;;;;;;;;;137350;1272;22589;-83
2023/11/26 07:56:53;;;;;;;;;;;;;;;;;;137513;1275;22299;-83
2023/11/26 07:59:57;;;;;;;;;;;;;;;;;;137452;1275;22518;-82
2023/11/26 08:03:00;;;;;;;;;;;;;;;;;;137267;1275;22552;-84
2023/11/26 08:06:03;;;;;;;;;;;;;;;;;;137496;1275;22479;-82
2023/11/26 08:09:08;;;;;;;;;;;;;;;;;;137483;1275;22290;-83
2023/11/26 08:12:13;;;;;;;;;;;;;;;;;;137163;1275;22537;-81
2023/11/26 08:15:19;;;;;;;;;;;;;;;;;;137345;1272;22532;-83
2023/11/26 08:18:22;;;;;;;;;;;;;;;;;;137444;1275;22356;-82
2023/11/26 08:21:27;;;;;;;;;;;;;;;;;;137370;1275;22490;-83
2023/11/26 08:24:29;;;;;;;;;;;;;;;;;;137408;1275;22499;-82
2023/11/26 08:27:34;;;;;;;;;;;;;;;;;;137269;1272;25901;-83
2023/11/26 08:30:42;;;;;;;;;;;;;;;;;;137428;1275;22510;-82
2023/11/26 08:33:47;;;;;;;;;;;;;;;;;;137440;1275;22553;-82
2023/11/26 08:36:51;;;;;;;;;;;;;;;;;;137339;1275;23076;-81
2023/11/26 08:39:53;;;;;;;;;;;;;;;;;;137419;1275;22993;-82
2023/11/26 08:42:55;;;;;;;;;;;;;;;;;;137378;1272;22834;-83
2023/11/26 08:46:02;;;;;;;;;;;;;;;;;;137407;1275;22503;-84
2023/11/26 08:49:06;;;;;;;;;;;;;;;;;;137435;1275;22519;-83
2023/11/26 08:52:10;;;;;;;;;;;;;;;;;;137412;1275;22924;-83
2023/11/26 08:55:12;;;;;;;;;;;;;;;;;;137357;1275;22586;-82
2023/11/26 08:58:15;;;;;;;;;;;;;;;;;;137408;1275;22502;-84
2023/11/26 09:01:17;;;;;;;;;;;;;;;;;;137284;1275;22594;-82
2023/11/26 09:04:20;;;;;;;;;;;;;;;;;;137337;1275;22960;-82
2023/11/26 09:07:22;;;;;;;;;;;;;;;;;;137501;1275;22358;-83
2023/11/26 09:10:25;;;;;;;;;;;;;;;;;;137385;1275;22576;-82
2023/11/26 09:13:28;;;;;;;;;;;;;;;;;;137360;1275;22591;-83
2023/11/26 09:16:36;;;;;;;;;;;;;;;;;;137366;1275;22531;-83
2023/11/26 09:19:38;;;;;;;;;;;;;;;;;;137391;1275;22973;-82
2023/11/26 09:22:41;;;;;;;;;;;;;;;;;;137382;1275;22527;-84
2023/11/26 09:25:43;;;;;;;;;;;;;;;;;;137443;1275;22334;-83
2023/11/26 09:28:46;;;;;;;;;;;;;;;;;;137337;1275;22528;-84
2023/11/26 09:31:48;;;;;;;;;;;;;;;;;;137405;1275;22553;-83
2023/11/26 09:34:52;;;;;;;;;;;;;;;;;;137447;1275;22479;-83
2023/11/26 09:37:55;;;;;;;;;;;;;;;;;;137191;1275;22542;-83
2023/11/26 09:40:58;;;;;;;;;;;;;;;;;;137418;1275;22382;-82
2023/11/26 09:44:00;;;;;;;;;;;;;;;;;;137372;1275;22510;-83
2023/11/26 09:47:03;;;;;;;;;;;;;;;;;;137339;1275;22573;-82
2023/11/26 09:50:05;;;;;;;;;;;;;;;;;;137412;1275;22593;-82
2023/11/26 09:53:08;;;;;;;;;;;;;;;;;;137364;1275;22683;-83
2023/11/26 09:56:11;;;;;;;;;;;;;;;;;;137338;1275;22599;-82
2023/11/26 09:59:14;;;;;;;;;;;;;;;;;;137303;1275;22527;-83
2023/11/26 10:02:16;;;;;;;;;;;;;;;;;;137251;1275;22556;-83
2023/11/26 10:05:19;;;;;;;;;;;;;;;;;;137393;1275;22895;-83
2023/11/26 10:08:22;;;;;;;;;;;;;;;;;;137212;1275;189737;-83
2023/11/26 10:11:25;;;;;;;;;;;;;;;;;;137208;1275;22579;-81
2023/11/26 10:14:27;;;;;;;;;;;;;;;;;;137618;1275;22497;-82
2023/11/26 10:17:30;;;;;;;;;;;;;;;;;;137428;1275;22525;-81
2023/11/26 10:20:33;;;;;;;;;;;;;;;;;;137085;1275;22574;-80
2023/11/26 10:23:36;;;;;;;;;;;;;;;;;;137415;1275;22520;-83
2023/11/26 10:26:39;;;;;;;;;;;;;;;;;;137390;1267;22504;-82
2023/11/26 10:29:42;;;;;;;;;;;;;;;;;;137452;1275;22504;-82
2023/11/26 10:32:45;;;;;;;;;;;;;;;;;;137378;1275;22656;-82
2023/11/26 10:35:48;;;;;;;;;;;;;;;;;;137395;1275;22491;-82
2023/11/26 10:38:50;;;;;;;;;;;;;;;;;;137355;1275;22560;-82
2023/11/26 10:41:53;;;;;;;;;;;;;;;;;;137396;1275;22520;-83
2023/11/26 10:44:56;;;;;;;;;;;;;;;;;;137357;1275;22644;-82
2023/11/26 10:47:58;;;;;;;;;;;;;;;;;;137324;1275;22933;-83
2023/11/26 10:51:01;;;;;;;;;;;;;;;;;;137420;1275;22794;-82
2023/11/26 10:54:03;;;;;;;;;;;;;;;;;;137328;1269;22532;-82
2023/11/26 10:57:07;;;;;;;;;;;;;;;;;;137263;1275;22913;-82
2023/11/26 11:00:10;;;;;;;;;;;;;;;;;;137384;1275;23433;-83
2023/11/26 11:03:12;;;;;;;;;;;;;;;;;;137431;1275;22656;-82
2023/11/26 11:06:15;;;;;;;;;;;;;;;;;;137375;1275;22495;-82
2023/11/26 11:09:17;;;;;;;;;;;;;;;;;;137433;1275;22354;-82
2023/11/26 11:12:20;;;;;;;;;;;;;;;;;;137387;1275;22505;-81
2023/11/26 11:15:23;;;;;;;;;;;;;;;;;;137415;1275;22578;-82
2023/11/26 11:18:25;;;;;;;;;;;;;;;;;;137447;1275;22324;-81
2023/11/26 11:21:28;;;;;;;;;;;;;;;;;;137421;1275;22311;-81
2023/11/26 11:24:30;;;;;;;;;;;;;;;;;;137405;1275;22531;-81
2023/11/26 11:27:33;;;;;;;;;;;;;;;;;;137383;1275;22507;-82
2023/11/26 11:30:35;;;;;;;;;;;;;;;;;;137402;1275;22279;-82
2023/11/26 11:33:38;;;;;;;;;;;;;;;;;;137289;1275;22488;-81
2023/11/26 11:36:41;;;;;;;;;;;;;;;;;;137390;1275;22397;-81
2023/11/26 11:39:44;;;;;;;;;;;;;;;;;;137422;1275;22281;-81
2023/11/26 11:42:46;;;;;;;;;;;;;;;;;;137421;1275;22749;-81
2023/11/26 11:45:49;;;;;;;;;;;;;;;;;;137410;1275;22343;-81
2023/11/26 11:48:52;;;;;;;;;;;;;;;;;;137397;1275;22645;-82
2023/11/26 11:51:54;;;;;;;;;;;;;;;;;;137402;1275;23005;-81
2023/11/26 11:54:57;;;;;;;;;;;;;;;;;;137429;1275;23006;-82
2023/11/26 11:57:59;;;;;;;;;;;;;;;;;;137265;1275;22517;-82
2023/11/26 12:01:01;;;;;;;;;;;;;;;;;;137404;1275;22353;-81
2023/11/26 12:04:04;;;;;;;;;;;;;;;;;;137372;1275;22667;-81
2023/11/26 12:07:07;;;;;;;;;;;;;;;;;;137418;1275;22517;-82
2023/11/26 12:10:09;;;;;;;;;;;;;;;;;;137455;1275;22855;-82
2023/11/26 12:13:11;;;;;;;;;;;;;;;;;;137241;1275;22894;-82
2023/11/26 12:16:14;;;;;;;;;;;;;;;;;;137435;1275;22888;-82
2023/11/26 12:19:19;;;;;;;;;;;;;;;;;;137450;1275;22768;-82
2023/11/26 12:22:21;;;;;;;;;;;;;;;;;;137363;1275;22494;-82
2023/11/26 12:25:24;;;;;;;;;;;;;;;;;;137434;1275;22665;-82
2023/11/26 12:28:29;;;;;;;;;;;;;;;;;;137321;1275;22549;-82
2023/11/26 12:31:31;;;;;;;;;;;;;;;;;;137483;1275;22535;-82
2023/11/26 12:34:34;;;;;;;;;;;;;;;;;;137525;1275;22551;-82
2023/11/26 12:37:37;;;;;;;;;;;;;;;;;;137461;1275;22983;-81
2023/11/26 12:40:39;;;;;;;;;;;;;;;;;;137424;1275;22620;-81
2023/11/26 12:43:45;;;;;;;;;;;;;;;;;;137484;1275;22563;-81
2023/11/26 12:46:47;;;;;;;;;;;;;;;;;;137450;1275;22563;-81
2023/11/26 12:49:50;;;;;;;;;;;;;;;;;;137484;1275;22289;-82
2023/11/26 12:52:53;;;;;;;;;;;;;;;;;;137406;1275;22573;-82
2023/11/26 12:55:55;;;;;;;;;;;;;;;;;;137346;1275;22599;-82
2023/11/26 12:58:59;;;;;;;;;;;;;;;;;;137129;1275;22594;-81
2023/11/26 13:02:01;;;;;;;;;;;;;;;;;;137388;1275;22553;-82
2023/11/26 13:05:04;;;;;;;;;;;;;;;;;;137458;1275;22569;-82
2023/11/26 13:08:07;;;;;;;;;;;;;;;;;;137322;1275;22575;-82
2023/11/26 13:11:10;;;;;;;;;;;;;;;;;;137525;1275;22303;-82
2023/11/26 13:14:14;;;;;;;;;;;;;;;;;;137433;1275;22584;-82
2023/11/26 13:17:19;;;;;;;;;;;;;;;;;;137419;1275;22524;-82
2023/11/26 13:20:22;;;;;;;;;;;;;;;;;;137470;1275;22606;-82
2023/11/26 13:23:25;;;;;;;;;;;;;;;;;;137491;1275;22393;-82
2023/11/26 13:26:28;;;;;;;;;;;;;;;;;;137452;1275;23029;-82
2023/11/26 13:29:30;;;;;;;;;;;;;;;;;;137514;1275;22282;-82
2023/11/26 13:32:34;;;;;;;;;;;;;;;;;;137451;1275;22910;-82
2023/11/26 13:35:38;;;;;;;;;;;;;;;;;;137397;1275;22567;-82
2023/11/26 13:38:41;;;;;;;;;;;;;;;;;;137407;1275;22579;-81
2023/11/26 13:41:43;;;;;;;;;;;;;;;;;;137509;1275;22442;-81
2023/11/26 13:44:46;;;;;;;;;;;;;;;;;;137352;1275;22523;-81
2023/11/26 13:47:48;;;;;;;;;;;;;;;;;;137400;1275;23292;-81
2023/11/26 13:50:51;;;;;;;;;;;;;;;;;;137428;1275;22588;-82
2023/11/26 13:53:54;;;;;;;;;;;;;;;;;;137321;1275;22563;-82
2023/11/26 13:56:56;;;;;;;;;;;;;;;;;;137412;1275;22510;-82
2023/11/26 14:00:00;;;;;;;;;;;;;;;;;;137464;1275;22401;-81
2023/11/26 14:03:04;;;;;;;;;;;;;;;;;;137359;1275;22492;-81
2023/11/26 14:06:08;;;;;;;;;;;;;;;;;;137368;1275;22824;-82
2023/11/26 14:09:14;;;;;;;;;;;;;;;;;;137345;1275;22498;-81
2023/11/26 14:12:17;;;;;;;;;;;;;;;;;;137404;1275;22534;-82
2023/11/26 14:15:20;;;;;;;;;;;;;;;;;;137324;1275;22596;-82
2023/11/26 14:18:23;;;;;;;;;;;;;;;;;;137346;1275;22585;-83
2023/11/26 14:21:25;;;;;;;;;;;;;;;;;;137412;1275;22518;-82
2023/11/26 14:24:28;;;;;;;;;;;;;;;;;;137414;1275;22940;-81
2023/11/26 14:27:31;;;;;;;;;;;;;;;;;;137424;1275;22316;-82
2023/11/26 14:30:34;;;;;;;;;;;;;;;;;;137426;1275;22555;-82
2023/11/26 14:33:37;;;;;;;;;;;;;;;;;;137391;1275;22281;-82
2023/11/26 14:36:39;;;;;;;;;;;;;;;;;;137393;1275;22594;-81
2023/11/26 14:39:42;;;;;;;;;;;;;;;;;;137436;1275;22351;-81
2023/11/26 14:42:44;;;;;;;;;;;;;;;;;;137426;1263;22300;-83
2023/11/26 14:45:47;;;;;;;;;;;;;;;;;;137451;1275;22499;-81
2023/11/26 14:48:49;;;;;;;;;;;;;;;;;;137446;1275;22376;-82
2023/11/26 14:51:52;;;;;;;;;;;;;;;;;;137575;1275;22413;-82
2023/11/26 14:54:56;;;;;;;;;;;;;;;;;;137347;1272;22507;-82
2023/11/26 14:57:58;;;;;;;;;;;;;;;;;;137286;1275;22574;-82
2023/11/26 15:01:03;;;;;;;;;;;;;;;;;;137322;1275;22480;-82
2023/11/26 15:04:06;;;;;;;;;;;;;;;;;;137486;1275;22548;-81
2023/11/26 15:07:09;;;;;;;;;;;;;;;;;;137448;1275;22506;-82
2023/11/26 15:10:11;;;;;;;;;;;;;;;;;;137242;1275;23111;-81
2023/11/26 15:13:14;;;;;;;;;;;;;;;;;;137419;1275;23004;-81
2023/11/26 15:16:16;;;;;;;;;;;;;;;;;;137389;1275;22512;-82
2023/11/26 15:19:19;;;;;;;;;;;;;;;;;;137351;1275;22519;-82
2023/11/26 15:22:21;;;;;;;;;;;;;;;;;;137394;1275;22918;-82
2023/11/26 15:25:26;;;;;;;;;;;;;;;;;;137316;1275;23151;-81
2023/11/26 15:28:28;;;;;;;;;;;;;;;;;;137378;1275;22510;-82
2023/11/26 15:31:31;;;;;;;;;;;;;;;;;;137412;1275;22526;-81
2023/11/26 15:34:33;;;;;;;;;;;;;;;;;;137384;1274;23042;-81
2023/11/26 15:37:37;;;;;;;;;;;;;;;;;;137478;1275;22537;-82
2023/11/26 15:40:41;;;;;;;;;;;;;;;;;;137456;1275;23102;-82
2023/11/26 15:43:44;;;;;;;;;;;;;;;;;;137335;1275;22559;-81
2023/11/26 15:46:46;;;;;;;;;;;;;;;;;;137473;1270;22301;-81
2023/11/26 15:49:49;;;;;;;;;;;;;;;;;;137432;1275;22823;-81
2023/11/26 15:52:51;;;;;;;;;;;;;;;;;;137461;1259;22460;-81
2023/11/26 15:55:54;;;;;;;;;;;;;;;;;;137410;1275;22944;-81
2023/11/26 15:58:56;;;;;;;;;;;;;;;;;;137401;1275;23081;-81
2023/11/26 16:02:00;;;;;;;;;;;;;;;;;;137463;1275;23040;-82
2023/11/26 16:05:02;;;;;;;;;;;;;;;;;;137394;1275;22585;-81
2023/11/26 16:08:05;;;;;;;;;;;;;;;;;;137427;1275;22506;-81
2023/11/26 16:11:08;;;;;;;;;;;;;;;;;;137435;1275;22329;-81
2023/11/26 16:14:11;;;;;;;;;;;;;;;;;;137457;1275;22729;-81
2023/11/26 16:17:14;;;;;;;;;;;;;;;;;;137407;1275;22511;-82
2023/11/26 16:20:16;;;;;;;;;;;;;;;;;;137460;1275;22541;-82
2023/11/26 16:23:19;;;;;;;;;;;;;;;;;;137444;1275;22556;-81
2023/11/26 16:26:21;;;;;;;;;;;;;;;;;;137446;1272;22949;-82
2023/11/26 16:29:24;;;;;;;;;;;;;;;;;;137286;1275;22982;-83
2023/11/26 16:32:28;;;;;;;;;;;;;;;;;;137348;1275;22567;-82
2023/11/26 16:35:30;;;;;;;;;;;;;;;;;;137416;1275;22812;-81
2023/11/26 16:38:33;;;;;;;;;;;;;;;;;;137276;1275;22519;-83
2023/11/26 16:41:35;;;;;;;;;;;;;;;;;;137366;1275;22964;-81
2023/11/26 16:44:38;;;;;;;;;;;;;;;;;;137409;1275;22506;-82
2023/11/26 16:47:40;;;;;;;;;;;;;;;;;;137499;1275;22992;-82
2023/11/26 16:50:43;;;;;;;;;;;;;;;;;;137425;1275;22525;-82
2023/11/26 16:53:45;;;;;;;;;;;;;;;;;;137459;1267;22516;-82
2023/11/26 16:56:48;;;;;;;;;;;;;;;;;;137307;1275;22552;-82
2023/11/26 16:59:53;;;;;;;;;;;;;;;;;;137450;1275;22544;-82
2023/11/26 17:02:56;;;;;;;;;;;;;;;;;;137503;1275;23032;-81
2023/11/26 17:06:02;;;;;;;;;;;;;;;;;;137354;1275;22994;-81
2023/11/26 17:09:05;;;;;;;;;;;;;;;;;;137399;1274;22533;-80
2023/11/26 17:12:08;;;;;;;;;;;;;;;;;;137295;1275;22584;-81
2023/11/26 17:15:10;;;;;;;;;;;;;;;;;;137400;1275;22550;-81
2023/11/26 17:18:13;;;;;;;;;;;;;;;;;;137264;1275;22535;-82
2023/11/26 17:21:17;;;;;;;;;;;;;;;;;;137431;1275;22587;-82
2023/11/26 17:24:19;;;;;;;;;;;;;;;;;;137212;1275;22548;-81
2023/11/26 17:27:22;;;;;;;;;;;;;;;;;;137558;1275;22340;-82
2023/11/26 17:30:24;;;;;;;;;;;;;;;;;;137564;1275;22482;-81
2023/11/26 17:33:28;;;;;;;;;;;;;;;;;;137474;1275;22511;-81
2023/11/26 17:36:33;;;;;;;;;;;;;;;;;;137385;1275;22526;-82
2023/11/26 17:39:35;;;;;;;;;;;;;;;;;;137462;1275;22318;-82
2023/11/26 17:42:38;;;;;;;;;;;;;;;;;;137468;1275;22347;-82
2023/11/26 17:45:42;;;;;;;;;;;;;;;;;;137435;1275;23119;-82
2023/11/26 17:48:45;;;;;;;;;;;;;;;;;;137465;1275;22344;-82
2023/11/26 17:51:50;;;;;;;;;;;;;;;;;;137429;1275;22292;-83
2023/11/26 17:54:53;;;;;;;;;;;;;;;;;;137355;1275;22537;-83
2023/11/26 17:57:58;;;;;;;;;;;;;;;;;;137438;1275;22410;-81
2023/11/26 18:01:01;;;;;;;;;;;;;;;;;;137402;1275;22508;-82
2023/11/26 18:04:04;;;;;;;;;;;;;;;;;;137288;1275;22511;-81
2023/11/26 18:07:06;;;;;;;;;;;;;;;;;;137409;1275;22333;-81
2023/11/26 18:10:09;;;;;;;;;;;;;;;;;;137402;1263;22513;-81
2023/11/26 18:13:11;;;;;;;;;;;;;;;;;;137437;1275;22491;-80
2023/11/26 18:16:14;;;;;;;;;;;;;;;;;;137361;1275;22518;-80
2023/11/26 18:19:17;;;;;;;;;;;;;;;;;;137451;1275;22502;-81
2023/11/26 18:22:19;;;;;;;;;;;;;;;;;;137462;1275;22875;-81
2023/11/26 18:25:21;;;;;;;;;;;;;;;;;;137405;1275;22420;-81
2023/11/26 18:28:24;;;;;;;;;;;;;;;;;;137405;1275;22444;-81
2023/11/26 18:31:27;;;;;;;;;;;;;;;;;;137301;1275;22498;-81
2023/11/26 18:34:29;;;;;;;;;;;;;;;;;;137319;1275;22521;-81
2023/11/26 18:37:32;;;;;;;;;;;;;;;;;;137390;1275;22977;-81
2023/11/26 18:40:35;;;;;;;;;;;;;;;;;;137345;1275;22531;-80
2023/11/26 18:43:37;;;;;;;;;;;;;;;;;;137318;1275;22518;-80
2023/11/26 18:46:42;;;;;;;;;;;;;;;;;;137426;1275;22208;-83
2023/11/26 18:49:44;;;;;;;;;;;;;;;;;;137421;1275;22519;-82
2023/11/26 18:52:47;;;;;;;;;;;;;;;;;;137395;1275;22528;-82
2023/11/26 18:55:50;;;;;;;;;;;;;;;;;;137384;1275;22595;-82
2023/11/26 18:58:52;;;;;;;;;;;;;;;;;;137271;1275;23577;-82
2023/11/26 19:01:55;;;;;;;;;;;;;;;;;;137318;1275;23014;-82
2023/11/26 19:04:58;;;;;;;;;;;;;;;;;;137288;1275;22573;-81
2023/11/26 19:08:00;;;;;;;;;;;;;;;;;;137370;1275;22561;-81
2023/11/26 19:11:03;;;;;;;;;;;;;;;;;;137342;1275;22583;-81
2023/11/26 19:14:06;;;;;;;;;;;;;;;;;;137356;1275;22576;-82
2023/11/26 19:17:08;;;;;;;;;;;;;;;;;;137312;1275;22851;-82
2023/11/26 19:20:11;;;;;;;;;;;;;;;;;;137334;1275;22651;-81
2023/11/26 19:23:13;;;;;;;;;;;;;;;;;;137426;1275;22419;-82
2023/11/26 19:26:16;;;;;;;;;;;;;;;;;;137405;1275;22523;-82
2023/11/26 20:00:23;;;;;;;;;;;;;;;;;;133919;1303;544023;-83
2023/11/26 20:03:26;;;;;;;;;;;;;;;;;;135963;1285;22893;-83
2023/11/26 20:06:28;;;;;;;;;;;;;;;;;;137351;1277;22255;-83
2023/11/26 20:09:31;;;;;;;;;;;;;;;;;;137361;1277;22241;-83
2023/11/26 20:12:33;;;;;;;;;;;;;;;;;;137283;1275;176622;-83
2023/11/26 20:15:36;;;;;;;;;;;;;;;;;;137497;1275;22311;-83
2023/11/26 20:18:39;;;;;;;;;;;;;;;;;;137507;1275;22391;-83
2023/11/26 20:21:41;;;;;;;;;;;;;;;;;;137516;1275;22689;-83
2023/11/26 20:24:44;;;;;;;;;;;;;;;;;;137500;1275;22274;-83
2023/11/26 20:27:46;;;;;;;;;;;;;;;;;;137514;1275;22882;-81
2023/11/26 20:30:49;;;;;;;;;;;;;;;;;;137507;1275;22313;-81
2023/11/26 20:33:53;;;;;;;;;;;;;;;;;;137540;1275;22308;-81
2023/11/26 20:36:56;;;;;;;;;;;;;;;;;;137505;1275;22182;-81
2023/11/26 20:39:58;;;;;;;;;;;;;;;;;;137509;1269;22262;-81
2023/11/26 20:43:01;;;;;;;;;;;;;;;;;;137537;1275;22188;-80
2023/11/26 20:46:03;;;;;;;;;;;;;;;;;;137480;1275;22278;-79
2023/11/26 20:49:08;;;;;;;;;;;;;;;;;;137493;1275;22331;-79
2023/11/26 20:52:11;;;;;;;;;;;;;;;;;;137490;1275;22261;-80
2023/11/26 20:55:13;;;;;;;;;;;;;;;;;;137500;1275;22275;-80
2023/11/26 20:58:16;;;;;;;;;;;;;;;;;;137497;1275;22815;-79
2023/11/26 21:01:18;;;;;;;;;;;;;;;;;;137500;1275;22790;-81